Time;durP1;ratioP1;P1;durP2;ratioP2;P2;SDS_P1;SDS_P2;PMS_P1;PMS_P2;Temp;Humidity;BMP_temperature;BMP_pressure;BME280_temperature;BME280_humidity;BME280_pressure;Samples;Min_cycle;Max_cycle;Signal;HPM_P1;HPM_P2
2022/03/24 00:00:15;;;;;;;18.98;8.48;;;;;;;2.61;63.73;95496.72;5077362;28;20210;-74
2022/03/24 00:02:42;;;;;;;26.13;11.07;;;;;;;2.47;62.65;95491.00;5091349;28;20210;-74
2022/03/24 00:05:11;;;;;;;29.50;10.15;;;;;;;2.27;62.62;95490.84;5077661;28;20237;-74
2022/03/24 00:07:38;;;;;;;26.48;8.25;;;;;;;2.22;62.75;95488.13;5082404;28;20310;-74
2022/03/24 00:10:07;;;;;;;27.20;9.60;;;;;;;2.24;63.03;95486.00;5084593;28;20234;-74
2022/03/24 00:12:35;;;;;;;35.25;13.38;;;;;;;2.19;63.00;95483.31;5079755;28;20209;-74
2022/03/24 00:15:02;;;;;;;31.20;11.52;;;;;;;2.20;64.68;95479.53;5071307;28;20245;-74
2022/03/24 00:17:30;;;;;;;25.27;8.95;;;;;;;2.21;65.69;95481.97;5060378;28;20206;-74
2022/03/24 00:19:57;;;;;;;19.70;8.00;;;;;;;1.99;65.67;95479.38;5087378;28;20227;-74
2022/03/24 00:22:24;;;;;;;17.20;8.30;;;;;;;1.98;66.48;95474.28;5084323;28;20206;-73
2022/03/24 00:24:51;;;;;;;27.92;9.43;;;;;;;2.15;66.07;95466.97;5081321;28;20218;-74
2022/03/24 00:27:19;;;;;;;20.25;8.75;;;;;;;2.14;66.28;95471.50;5074159;28;20564;-74
2022/03/24 00:29:46;;;;;;;26.23;8.70;;;;;;;2.26;65.22;95465.19;5075350;28;20226;-74
2022/03/24 00:32:13;;;;;;;34.03;10.93;;;;;;;1.86;66.25;95469.09;5084160;28;20199;-74
2022/03/24 00:34:40;;;;;;;29.40;11.70;;;;;;;2.01;65.93;95465.75;5088369;28;20211;-73
2022/03/24 00:37:08;;;;;;;26.40;11.73;;;;;;;2.00;65.84;95469.50;5074479;28;20203;-75
2022/03/24 00:39:35;;;;;;;29.92;12.25;;;;;;;1.83;65.53;95458.91;5087625;28;20214;-75
2022/03/24 00:42:02;;;;;;;21.50;9.02;;;;;;;1.91;65.87;95455.78;5073940;28;20229;-74
2022/03/24 00:44:32;;;;;;;26.25;10.30;;;;;;;1.95;66.32;95461.41;5079327;28;20194;-74
2022/03/24 00:46:58;;;;;;;30.80;11.55;;;;;;;1.80;66.19;95459.41;5082041;28;20207;-73
2022/03/24 00:49:26;;;;;;;18.95;8.93;;;;;;;1.94;67.56;95452.59;5087579;28;20230;-74
2022/03/24 00:51:53;;;;;;;18.73;9.45;;;;;;;2.07;69.69;95448.69;5087079;28;20201;-74
2022/03/24 00:54:20;;;;;;;26.70;9.63;;;;;;;2.14;69.27;95450.13;5080947;28;20206;-73
2022/03/24 00:56:47;;;;;;;15.00;7.38;;;;;;;2.20;67.78;95444.78;5081188;28;20292;-74
2022/03/24 00:59:14;;;;;;;26.77;10.45;;;;;;;2.09;66.94;95436.69;5087623;28;20256;-74
2022/03/24 01:01:42;;;;;;;22.65;8.13;;;;;;;1.91;66.20;95431.75;5073054;28;20217;-75
2022/03/24 01:04:09;;;;;;;19.45;8.55;;;;;;;1.82;65.86;95429.78;5066832;28;20203;-74
2022/03/24 01:06:36;;;;;;;27.02;9.45;;;;;;;1.84;66.92;95425.78;5080463;28;20658;-75
2022/03/24 01:09:04;;;;;;;25.73;8.15;;;;;;;1.68;66.83;95430.19;5087024;28;20223;-75
2022/03/24 01:11:31;;;;;;;30.17;9.75;;;;;;;1.58;67.45;95437.28;5087134;28;20202;-75
2022/03/24 01:13:58;;;;;;;29.45;9.50;;;;;;;1.71;68.20;95426.19;5081312;28;20272;-75
2022/03/24 01:16:25;;;;;;;18.10;7.72;;;;;;;1.56;65.87;95436.72;5080527;28;20242;-75
2022/03/24 01:18:53;;;;;;;29.55;8.27;;;;;;;1.32;68.19;95439.69;5085710;28;20310;-74
2022/03/24 01:21:20;;;;;;;21.10;8.95;;;;;;;1.11;67.81;95448.47;5086827;28;20645;-75
2022/03/24 01:23:47;;;;;;;18.00;7.85;;;;;;;1.18;71.11;95434.97;5073280;28;20265;-74
2022/03/24 01:26:15;;;;;;;16.88;8.40;;;;;;;1.13;69.59;95442.91;5087461;28;20194;-75
2022/03/24 01:28:42;;;;;;;17.00;8.75;;;;;;;1.35;70.55;95431.19;5073491;28;20234;-75
2022/03/24 01:31:09;;;;;;;16.45;8.10;;;;;;;1.57;72.86;95430.31;5086140;28;20523;-74
2022/03/24 01:33:37;;;;;;;20.75;9.32;;;;;;;1.59;69.07;95430.88;5081180;28;20289;-74
2022/03/24 01:36:06;;;;;;;26.38;8.85;;;;;;;1.48;68.83;95429.16;5078570;28;20559;-75
2022/03/24 01:38:33;;;;;;;17.50;7.88;;;;;;;1.37;68.14;95434.38;5083511;28;20223;-74
2022/03/24 01:41:00;;;;;;;21.05;7.78;;;;;;;1.33;69.87;95422.59;5083106;28;20231;-75
2022/03/24 01:43:27;;;;;;;23.02;8.82;;;;;;;1.32;68.29;95417.53;5074290;28;20213;-74
2022/03/24 01:45:54;;;;;;;20.73;10.32;;;;;;;1.29;68.01;95426.81;5075815;28;20673;-74
2022/03/24 01:48:21;;;;;;;23.05;10.18;;;;;;;1.04;69.14;95423.84;5084246;28;20252;-74
2022/03/24 01:50:48;;;;;;;22.75;11.20;;;;;;;0.87;69.11;95417.78;5079314;28;20600;-75
2022/03/24 01:53:18;;;;;;;27.70;10.65;;;;;;;0.81;70.01;95397.44;5081748;28;20207;-75
2022/03/24 01:55:45;;;;;;;36.03;10.43;;;;;;;0.77;69.91;95406.97;5086173;28;20218;-74
2022/03/24 01:58:13;;;;;;;22.25;9.75;;;;;;;0.49;70.46;95399.94;5084757;28;20217;-75
2022/03/24 02:00:40;;;;;;;30.75;10.73;;;;;;;0.59;74.49;95405.41;5079575;28;20198;-75
2022/03/24 02:03:08;;;;;;;25.90;11.38;;;;;;;0.33;70.86;95412.22;5081237;28;20214;-74
2022/03/24 02:05:37;;;;;;;22.52;11.15;;;;;;;0.35;72.76;95400.28;5086343;28;20206;-75
2022/03/24 02:08:04;;;;;;;23.42;9.90;;;;;;;0.50;72.69;95413.00;5072349;28;20275;-75
2022/03/24 02:10:34;;;;;;;22.98;10.93;;;;;;;0.39;73.01;95416.59;5078171;28;20325;-74
2022/03/24 02:13:03;;;;;;;30.75;11.32;;;;;;;0.34;72.45;95408.50;5079602;28;20206;-75
2022/03/24 02:15:32;;;;;;;29.60;10.65;;;;;;;0.45;71.77;95410.28;5085871;28;20203;-75
2022/03/24 02:17:58;;;;;;;27.83;11.10;;;;;;;0.62;72.45;95411.06;5086231;28;20203;-74
2022/03/24 02:20:28;;;;;;;22.35;9.57;;;;;;;0.71;73.18;95408.75;5079233;28;20590;-75
2022/03/24 02:22:56;;;;;;;27.17;10.60;;;;;;;0.63;73.34;95402.00;5078156;28;20286;-75
2022/03/24 02:25:25;;;;;;;24.40;9.98;;;;;;;0.56;71.97;95412.03;5079969;28;20565;-75
2022/03/24 02:27:55;;;;;;;25.80;10.60;;;;;;;0.61;71.27;95409.44;5078889;28;20221;-75
2022/03/24 02:30:24;;;;;;;27.67;13.30;;;;;;;0.15;72.70;95401.81;5084273;28;20249;-75
2022/03/24 02:32:52;;;;;;;25.80;10.65;;;;;;;0.26;73.47;95406.28;5085528;28;20202;-74
2022/03/24 02:35:19;;;;;;;22.70;8.77;;;;;;;-0.04;73.43;95420.72;5072078;28;20202;-74
2022/03/24 02:37:45;;;;;;;19.48;9.07;;;;;;;0.12;73.58;95408.47;5085146;28;20624;-74
2022/03/24 02:40:14;;;;;;;25.30;10.25;;;;;;;0.36;74.36;95406.41;5071792;28;20203;-75
2022/03/24 02:42:41;;;;;;;22.42;10.15;;;;;;;0.46;73.72;95401.22;5074085;28;20283;-74
2022/03/24 02:45:10;;;;;;;17.08;8.88;;;;;;;0.55;72.76;95405.06;5081301;28;20195;-75
2022/03/24 02:47:37;;;;;;;18.20;8.98;;;;;;;0.69;73.68;95394.84;5085581;28;20195;-75
2022/03/24 02:50:06;;;;;;;19.33;8.45;;;;;;;0.79;72.96;95399.53;5082691;28;20257;-75
2022/03/24 02:52:32;;;;;;;23.52;8.82;;;;;;;0.68;72.80;95395.94;5078376;28;20210;-75
2022/03/24 02:54:59;;;;;;;21.33;9.85;;;;;;;0.83;74.26;95396.13;5080083;28;20195;-75
2022/03/24 02:57:28;;;;;;;23.17;9.73;;;;;;;0.81;72.24;95403.59;5085380;28;20199;-74
2022/03/24 02:59:55;;;;;;;27.58;9.57;;;;;;;0.68;72.28;95399.38;5070970;28;20690;-75
2022/03/24 03:02:21;;;;;;;23.10;9.65;;;;;;;0.76;72.75;95397.38;5084958;28;20307;-74
2022/03/24 03:04:53;;;;;;;22.65;9.38;;;;;;;0.67;72.66;95397.00;5083712;28;20252;-75
2022/03/24 03:07:21;;;;;;;13.02;7.78;;;;;;;0.67;74.34;95397.81;5077979;28;20246;-75
2022/03/24 03:09:48;;;;;;;18.63;8.52;;;;;;;0.79;73.45;95388.88;5091937;28;20318;-74
2022/03/24 03:12:16;;;;;;;19.10;8.57;;;;;;;0.96;74.29;95384.25;5077464;28;20209;-76
2022/03/24 03:14:46;;;;;;;20.13;8.35;;;;;;;1.03;74.84;95390.22;5078511;28;20198;-72
2022/03/24 03:17:15;;;;;;;21.67;8.18;;;;;;;1.06;74.11;95395.06;5064934;28;20661;-74
2022/03/24 03:19:45;;;;;;;16.33;7.18;;;;;;;0.86;72.57;95394.81;5077728;28;20276;-74
2022/03/24 03:22:12;;;;;;;23.25;8.38;;;;;;;0.85;72.65;95403.88;5083605;28;20273;-73
2022/03/24 03:24:40;;;;;;;21.13;8.73;;;;;;;0.90;72.07;95404.75;5071963;28;20218;-73
2022/03/24 03:27:07;;;;;;;19.33;7.90;;;;;;;0.89;73.14;95399.66;5083210;28;20700;-73
2022/03/24 03:29:35;;;;;;;18.13;7.60;;;;;;;0.80;73.67;95406.50;5069568;28;20226;-73
2022/03/24 03:32:04;;;;;;;16.42;7.50;;;;;;;0.76;72.91;95400.84;5059554;28;20581;-74
2022/03/24 03:34:31;;;;;;;24.27;6.53;;;;;;;0.73;72.61;95403.19;5084367;28;20202;-74
2022/03/24 03:36:58;;;;;;;15.77;6.20;;;;;;;0.64;73.73;95402.81;5080729;28;20202;-74
2022/03/24 03:39:25;;;;;;;20.48;7.03;;;;;;;0.47;73.42;95394.03;5077726;28;20226;-74
2022/03/24 03:41:54;;;;;;;21.48;7.55;;;;;;;0.51;73.75;95398.63;5069440;28;20219;-74
2022/03/24 03:44:21;;;;;;;26.90;6.85;;;;;;;0.51;72.47;95382.66;5081429;28;20597;-74
2022/03/24 03:46:49;;;;;;;17.65;6.82;;;;;;;0.49;72.46;95395.41;5081651;28;20330;-74
2022/03/24 03:49:18;;;;;;;18.65;6.53;;;;;;;0.39;73.54;95395.28;5077159;28;20545;-73
2022/03/24 03:51:45;;;;;;;22.55;7.30;;;;;;;0.44;73.47;95392.66;5078918;28;20215;-74
2022/03/24 03:54:12;;;;;;;16.17;6.72;;;;;;;0.26;74.33;95400.94;5084504;28;20222;-73
2022/03/24 03:56:39;;;;;;;14.68;7.18;;;;;;;0.21;74.99;95392.88;5059041;28;20227;-74
2022/03/24 03:59:07;;;;;;;21.48;7.07;;;;;;;0.41;73.57;95397.69;5074492;28;20206;-73
2022/03/24 04:01:34;;;;;;;13.32;6.50;;;;;;;0.30;74.75;95391.41;5077896;28;20207;-74
2022/03/24 04:04:02;;;;;;;17.52;6.45;;;;;;;0.32;74.26;95394.63;5090000;28;20220;-74
2022/03/24 04:06:30;;;;;;;26.40;7.78;;;;;;;0.38;73.78;95391.00;5077195;28;20219;-74
2022/03/24 04:08:57;;;;;;;15.20;6.75;;;;;;;0.54;75.30;95395.50;5084323;28;20203;-74
2022/03/24 04:11:24;;;;;;;10.18;6.88;;;;;;;0.67;74.85;95395.13;5083204;28;20226;-74
2022/03/24 04:13:50;;;;;;;19.15;7.43;;;;;;;0.79;73.78;95395.03;5077920;28;20221;-74
2022/03/24 04:16:17;;;;;;;13.70;6.90;;;;;;;0.54;73.37;95387.50;5077276;28;20214;-73
2022/03/24 04:18:46;;;;;;;24.23;8.73;;;;;;;0.59;72.08;95390.22;5077504;28;20229;-74
2022/03/24 04:21:13;;;;;;;19.02;8.18;;;;;;;0.42;73.28;95394.75;5075215;28;20199;-73
2022/03/24 04:23:43;;;;;;;16.55;7.47;;;;;;;0.53;72.86;95399.22;5070421;28;20780;-74
2022/03/24 04:26:11;;;;;;;14.15;7.32;;;;;;;0.37;74.32;95397.38;5084304;28;20225;-74
2022/03/24 04:28:38;;;;;;;18.50;8.00;;;;;;;0.32;73.24;95392.78;5079348;28;20243;-74
2022/03/24 04:31:05;;;;;;;21.23;8.82;;;;;;;0.37;73.40;95392.03;5076637;28;20226;-76
2022/03/24 04:33:32;;;;;;;19.63;8.55;;;;;;;0.33;72.95;95396.25;5082151;28;20210;-73
2022/03/24 04:35:59;;;;;;;20.05;8.40;;;;;;;0.40;73.97;95391.56;5071904;28;20264;-73
2022/03/24 04:38:26;;;;;;;21.65;8.77;;;;;;;0.51;73.85;95387.97;5082061;28;20225;-74
2022/03/24 04:40:56;;;;;;;17.48;7.68;;;;;;;0.69;74.14;95390.34;5054967;28;20228;-74
2022/03/24 04:43:23;;;;;;;19.45;8.18;;;;;;;1.19;72.44;95394.69;5069551;28;20206;-74
2022/03/24 04:45:50;;;;;;;103.35;35.67;;;;;;;1.88;70.94;95392.19;5077065;28;20207;-74
2022/03/24 04:48:18;;;;;;;51.78;18.38;;;;;;;2.68;67.51;95391.16;5080767;28;20218;-74
2022/03/24 04:50:45;;;;;;;72.40;28.42;;;;;;;3.45;65.19;95384.22;5082887;28;20249;-75
2022/03/24 04:53:14;;;;;;;25.13;10.48;;;;;;;4.10;62.93;95386.19;5080697;28;20205;-74
2022/03/24 04:55:41;;;;;;;23.65;10.90;;;;;;;4.46;60.95;95400.41;5073186;28;20223;-73
2022/03/24 04:58:09;;;;;;;28.48;11.18;;;;;;;4.86;59.93;95388.78;5080976;28;20203;-74
2022/03/24 05:00:36;;;;;;;28.95;12.10;;;;;;;5.13;57.41;95382.25;5076996;28;20198;-75
2022/03/24 05:03:04;;;;;;;21.92;10.90;;;;;;;5.77;57.12;95387.56;5079543;28;20214;-73
2022/03/24 05:05:31;;;;;;;20.80;9.75;;;;;;;6.64;53.80;95383.16;5084214;28;20195;-74
2022/03/24 05:07:58;;;;;;;23.55;12.15;;;;;;;7.03;52.58;95377.63;5085186;28;20202;-74
2022/03/24 05:10:25;;;;;;;28.25;10.82;;;;;;;6.27;53.51;95375.69;5080326;28;20229;-74
2022/03/24 05:12:52;;;;;;;30.33;14.55;;;;;;;6.80;52.04;95373.03;5081598;28;20210;-74
2022/03/24 05:15:20;;;;;;;28.98;10.32;;;;;;;7.39;51.21;95379.91;5078694;28;20213;-74
2022/03/24 05:17:47;;;;;;;22.63;10.13;;;;;;;8.27;49.12;95368.41;5081710;28;20257;-74
2022/03/24 05:20:14;;;;;;;30.30;10.20;;;;;;;8.75;47.62;95368.16;5086928;28;20210;-74
2022/03/24 05:22:41;;;;;;;21.13;11.77;;;;;;;9.17;46.28;95365.19;5085331;28;20226;-73
2022/03/24 05:25:08;;;;;;;27.30;12.02;;;;;;;9.21;45.58;95366.19;5078233;28;20665;-74
2022/03/24 05:27:36;;;;;;;29.20;11.68;;;;;;;9.19;44.90;95368.41;5079859;28;20271;-74
2022/03/24 05:30:03;;;;;;;28.95;12.82;;;;;;;8.89;46.04;95363.56;5058814;28;20207;-74
2022/03/24 05:32:32;;;;;;;32.30;14.60;;;;;;;9.00;45.33;95365.00;5085582;28;20240;-74
2022/03/24 05:35:00;;;;;;;30.83;14.40;;;;;;;9.30;44.49;95362.78;5079866;28;20203;-74
2022/03/24 05:37:28;;;;;;;31.90;15.02;;;;;;;10.05;43.23;95362.25;5080526;28;20257;-74
2022/03/24 05:39:54;;;;;;;37.63;14.35;;;;;;;10.71;41.29;95352.56;5066635;28;20235;-74
2022/03/24 05:42:21;;;;;;;44.13;20.52;;;;;;;10.28;42.17;95361.19;5077758;28;20364;-74
2022/03/24 05:44:48;;;;;;;39.45;20.88;;;;;;;10.67;41.34;95355.09;5069105;28;20206;-74
2022/03/24 05:47:15;;;;;;;37.95;19.73;;;;;;;10.50;41.69;95363.13;5077986;28;20196;-74
2022/03/24 05:49:44;;;;;;;42.40;20.58;;;;;;;11.28;40.04;95351.56;5060982;28;20227;-75
2022/03/24 05:52:11;;;;;;;37.42;19.40;;;;;;;11.71;39.72;95348.16;5086532;28;20215;-74
2022/03/24 05:54:38;;;;;;;39.05;20.00;;;;;;;11.94;38.48;95344.22;5080912;28;20299;-74
2022/03/24 05:57:05;;;;;;;47.25;19.83;;;;;;;11.33;39.38;95337.88;5078969;28;20561;-74
2022/03/24 05:59:32;;;;;;;45.08;20.30;;;;;;;12.06;38.50;95336.25;5084551;28;20199;-74
2022/03/24 06:02:00;;;;;;;43.33;20.58;;;;;;;10.83;40.29;95350.88;5088352;28;20199;-74
2022/03/24 06:04:29;;;;;;;38.72;19.60;;;;;;;10.69;39.77;95350.97;5084783;28;20199;-74
2022/03/24 06:06:58;;;;;;;38.95;18.35;;;;;;;10.93;40.20;95347.13;5058938;28;20725;-74
2022/03/24 06:09:25;;;;;;;42.15;20.27;;;;;;;10.69;39.96;95345.53;5081913;28;20827;-74
2022/03/24 06:11:53;;;;;;;51.17;20.20;;;;;;;9.51;42.08;95364.00;5078970;28;20248;-73
2022/03/24 06:14:20;;;;;;;41.47;20.45;;;;;;;8.92;42.87;95362.97;5082668;28;20276;-74
2022/03/24 06:16:47;;;;;;;48.08;22.60;;;;;;;9.62;42.16;95355.34;5082378;28;20214;-73
2022/03/24 06:19:15;;;;;;;49.45;21.48;;;;;;;10.02;40.58;95369.09;5062476;28;20277;-74
2022/03/24 06:21:42;;;;;;;46.53;21.15;;;;;;;9.57;42.10;95363.56;5085425;28;20195;-74
2022/03/24 06:24:10;;;;;;;45.08;21.45;;;;;;;10.43;40.15;95351.91;5083189;28;20203;-74
2022/03/24 06:26:37;;;;;;;50.55;22.50;;;;;;;10.75;39.92;95346.22;5078764;28;20198;-74
2022/03/24 06:29:04;;;;;;;42.08;21.17;;;;;;;11.99;38.13;95338.66;5080166;28;20195;-74
2022/03/24 06:31:31;;;;;;;42.83;21.52;;;;;;;12.92;36.07;95339.97;5075780;28;20705;-74
2022/03/24 06:33:58;;;;;;;44.30;20.90;;;;;;;13.25;35.15;95332.84;5080579;28;20203;-75
2022/03/24 06:36:26;;;;;;;45.50;20.60;;;;;;;12.69;35.96;95334.75;5085351;28;20206;-75
2022/03/24 06:38:53;;;;;;;54.35;21.67;;;;;;;12.42;36.57;95329.69;5083203;28;20214;-75
2022/03/24 06:41:22;;;;;;;41.60;20.63;;;;;;;13.18;35.30;95329.81;5073710;28;20215;-76
2022/03/24 06:43:50;;;;;;;42.83;20.55;;;;;;;13.29;35.14;95331.03;5085618;28;20564;-73
2022/03/24 06:46:17;;;;;;;40.50;20.48;;;;;;;12.68;35.70;95337.78;5078335;28;20213;-75
2022/03/24 06:48:44;;;;;;;40.70;18.73;;;;;;;11.96;36.80;95339.28;5077711;28;20210;-74
2022/03/24 06:51:11;;;;;;;40.78;20.05;;;;;;;11.91;37.14;95342.13;5063612;28;20747;-74
2022/03/24 06:53:38;;;;;;;45.92;20.63;;;;;;;13.03;35.30;95333.03;5078101;28;20211;-75
2022/03/24 06:56:06;;;;;;;36.25;19.40;;;;;;;14.47;33.63;95328.22;5058579;28;20241;-75
2022/03/24 06:58:34;;;;;;;42.55;20.05;;;;;;;13.62;34.09;95327.69;5085182;28;20199;-74
2022/03/24 07:01:01;;;;;;;34.28;19.05;;;;;;;14.68;32.39;95318.03;5070814;28;20210;-74
2022/03/24 07:03:28;;;;;;;50.10;21.00;;;;;;;14.58;32.70;95321.19;5072386;28;20581;-75
2022/03/24 07:05:55;;;;;;;38.72;19.58;;;;;;;13.73;33.73;95318.81;5083363;28;20233;-74
2022/03/24 07:08:23;;;;;;;41.55;20.02;;;;;;;13.23;34.55;95315.25;5084736;28;20198;-74
2022/03/24 07:10:50;;;;;;;48.05;19.50;;;;;;;13.35;34.31;95318.88;5079740;28;20711;-76
2022/03/24 07:13:17;;;;;;;37.70;18.60;;;;;;;12.82;35.36;95322.09;5077698;28;20199;-75
2022/03/24 07:15:45;;;;;;;37.28;18.02;;;;;;;12.54;36.00;95326.31;5083105;28;20256;-75
2022/03/24 07:18:12;;;;;;;43.90;18.63;;;;;;;11.95;36.51;95326.81;5084544;28;20585;-74
2022/03/24 07:20:40;;;;;;;46.30;18.85;;;;;;;12.15;36.90;95325.41;5071348;28;20217;-74
2022/03/24 07:23:08;;;;;;;43.22;18.85;;;;;;;11.93;36.82;95329.03;5084020;28;20265;-76
2022/03/24 07:25:36;;;;;;;36.78;18.77;;;;;;;11.39;38.10;95331.16;5080141;28;20665;-75
2022/03/24 07:28:05;;;;;;;42.30;18.77;;;;;;;11.09;38.56;95336.63;5077292;28;20281;-74
2022/03/24 07:30:33;;;;;;;36.83;17.73;;;;;;;11.29;38.09;95342.31;5080623;28;20290;-76
2022/03/24 07:33:04;;;;;;;30.83;16.27;;;;;;;11.22;38.16;95336.53;5080596;28;20203;-75
2022/03/24 07:35:34;;;;;;;37.40;17.77;;;;;;;11.08;38.75;95325.00;5061749;28;20282;-73
2022/03/24 07:38:01;;;;;;;38.10;17.63;;;;;;;11.51;38.23;95327.03;5084375;28;20250;-75
2022/03/24 07:40:28;;;;;;;33.63;17.48;;;;;;;12.19;36.69;95320.09;5083075;28;20629;-74
2022/03/24 07:42:57;;;;;;;35.65;17.17;;;;;;;12.04;37.47;95326.81;5064244;28;20217;-75
2022/03/24 07:45:25;;;;;;;34.67;17.63;;;;;;;12.23;36.97;95315.63;5078002;28;20194;-74
2022/03/24 07:48:16;;;;;;;34.63;17.23;;;;;;;12.24;36.82;95319.94;5084426;28;20195;-74
2022/03/24 07:50:46;;;;;;;28.00;14.32;;;;;;;11.25;37.88;95327.78;5084266;28;20258;-75
2022/03/24 07:53:40;;;;;;;29.30;15.00;;;;;;;11.03;38.46;95314.31;5080184;28;20198;-73
2022/03/24 07:56:08;;;;;;;28.15;14.90;;;;;;;10.63;38.75;95330.53;5057278;28;20252;-75
2022/03/24 07:58:36;;;;;;;28.60;15.30;;;;;;;10.89;39.22;95321.75;5083777;28;20226;-75
2022/03/24 08:01:03;;;;;;;35.83;17.13;;;;;;;11.44;37.97;95321.28;5070577;28;20294;-74
2022/03/24 08:03:31;;;;;;;27.60;14.75;;;;;;;11.52;37.60;95313.16;5084725;28;20588;-75
2022/03/24 08:05:59;;;;;;;34.53;16.88;;;;;;;10.94;38.33;95316.16;5078863;28;20233;-73
2022/03/24 08:08:26;;;;;;;27.40;15.85;;;;;;;10.74;38.83;95309.38;5076806;28;20209;-73
2022/03/24 08:10:54;;;;;;;35.72;16.58;;;;;;;10.92;38.61;95316.50;5082021;28;20736;-75
2022/03/24 08:13:23;;;;;;;28.80;15.07;;;;;;;11.03;38.49;95311.59;5084373;28;20202;-73
2022/03/24 08:15:50;;;;;;;32.88;14.93;;;;;;;11.22;38.82;95314.84;5080289;28;20199;-75
2022/03/24 08:18:19;;;;;;;33.60;15.30;;;;;;;11.53;37.62;95303.09;5076871;28;20597;-73
2022/03/24 08:20:49;;;;;;;30.27;15.13;;;;;;;11.71;37.72;95304.75;5081351;28;20207;-73
2022/03/24 08:23:17;;;;;;;40.50;16.55;;;;;;;11.79;37.91;95308.59;5087731;28;20218;-75
2022/03/24 08:25:45;;;;;;;25.80;13.18;;;;;;;11.68;37.57;95294.50;5080288;28;20209;-73
2022/03/24 08:28:13;;;;;;;25.88;13.15;;;;;;;11.79;37.21;95305.88;5070259;28;20299;-72
2022/03/24 08:30:41;;;;;;;20.60;9.07;;;;;;;11.66;37.41;95294.03;5081979;28;20264;-71
2022/03/24 08:33:10;;;;;;;24.45;13.18;;;;;;;11.48;37.79;95301.34;5067602;28;20589;-73
2022/03/24 08:35:37;;;;;;;21.92;12.30;;;;;;;11.64;37.66;95293.53;5062306;28;20195;-74
2022/03/24 08:38:06;;;;;;;29.15;11.90;;;;;;;11.50;38.19;95288.25;5083335;28;20288;-72
2022/03/24 08:40:33;;;;;;;27.88;14.60;;;;;;;11.98;37.97;95277.31;5082924;28;20229;-73
2022/03/24 08:43:00;;;;;;;32.83;12.98;;;;;;;11.87;37.13;95289.63;5067578;28;20202;-72
2022/03/24 08:45:27;;;;;;;26.65;13.25;;;;;;;12.31;37.26;95279.50;5081494;28;20203;-74
2022/03/24 08:47:54;;;;;;;23.10;10.73;;;;;;;12.25;36.81;95286.22;5087753;28;20632;-73
2022/03/24 08:50:23;;;;;;;7.45;4.78;;;;;;;12.04;36.98;95276.00;5060780;28;20239;-73
2022/03/24 08:52:50;;;;;;;25.75;10.88;;;;;;;12.22;37.47;95281.44;5087099;28;20758;-73
2022/03/24 08:55:19;;;;;;;22.95;10.65;;;;;;;12.60;37.11;95281.50;5087246;28;20222;-74
2022/03/24 08:57:47;;;;;;;17.83;9.38;;;;;;;12.70;36.30;95265.69;5067681;28;20657;-73
2022/03/24 09:00:17;;;;;;;17.83;8.02;;;;;;;13.02;35.89;95271.63;5080524;28;20883;-73
2022/03/24 09:02:45;;;;;;;16.88;7.63;;;;;;;13.19;35.68;95277.00;5084845;28;20206;-74
2022/03/24 09:05:13;;;;;;;10.55;6.07;;;;;;;13.22;34.52;95270.13;5087292;28;20225;-74
2022/03/24 09:07:41;;;;;;;13.32;6.82;;;;;;;13.38;34.58;95263.78;5082653;28;20259;-73
2022/03/24 09:10:10;;;;;;;14.18;7.15;;;;;;;13.58;34.00;95261.41;5080457;28;20222;-74
2022/03/24 09:12:40;;;;;;;15.52;6.97;;;;;;;14.19;32.94;95254.38;5084015;28;20234;-74
2022/03/24 09:15:09;;;;;;;15.70;7.25;;;;;;;14.38;32.32;95262.03;5086967;28;20214;-74
2022/03/24 09:17:37;;;;;;;12.27;6.80;;;;;;;14.36;31.59;95258.81;5073211;28;20223;-73
2022/03/24 09:20:05;;;;;;;11.95;6.10;;;;;;;14.66;31.06;95257.59;5086558;28;20199;-74
2022/03/24 09:22:32;;;;;;;14.68;6.63;;;;;;;14.09;31.23;95258.28;5084211;28;20261;-74
2022/03/24 09:24:58;;;;;;;13.98;7.30;;;;;;;14.30;31.04;95257.47;5089194;28;20199;-73
2022/03/24 09:27:25;;;;;;;12.38;6.75;;;;;;;14.32;31.03;95263.38;5062934;28;20294;-75
2022/03/24 09:29:54;;;;;;;12.65;6.43;;;;;;;14.66;30.79;95254.84;5066865;28;20620;-74
2022/03/24 09:32:21;;;;;;;12.50;6.20;;;;;;;14.58;30.05;95239.41;5064613;28;20665;-73
2022/03/24 09:34:48;;;;;;;12.20;6.28;;;;;;;14.67;31.34;95242.03;5091468;28;20201;-74
2022/03/24 09:37:17;;;;;;;11.95;6.13;;;;;;;14.77;29.88;95236.91;5081138;28;20558;-74
2022/03/24 09:39:45;;;;;;;16.17;6.85;;;;;;;14.93;30.30;95232.41;5086845;28;20322;-76
2022/03/24 09:42:12;;;;;;;14.45;6.65;;;;;;;14.96;30.43;95221.94;5073095;28;20226;-74
2022/03/24 09:44:41;;;;;;;14.80;6.75;;;;;;;14.97;30.46;95218.06;5086000;28;20633;-73
2022/03/24 09:47:12;;;;;;;17.30;6.68;;;;;;;14.94;29.25;95223.06;5087021;28;20198;-74
2022/03/24 09:49:40;;;;;;;11.90;7.13;;;;;;;15.50;29.40;95220.53;5080436;28;20269;-73
2022/03/24 09:52:07;;;;;;;17.88;6.47;;;;;;;15.13;29.50;95217.06;5079069;28;20249;-75
2022/03/24 09:54:34;;;;;;;15.98;5.85;;;;;;;15.04;28.80;95207.38;5084831;28;20222;-75
2022/03/24 09:57:04;;;;;;;14.55;6.43;;;;;;;15.24;29.12;95211.94;5086040;28;20252;-73
2022/03/24 09:59:31;;;;;;;11.70;6.15;;;;;;;15.76;28.52;95211.19;5081987;28;20186;-74
2022/03/24 10:01:59;;;;;;;9.82;5.75;;;;;;;15.66;28.29;95207.00;5079348;28;20593;-74
2022/03/24 10:04:27;;;;;;;10.38;4.68;;;;;;;15.37;27.32;95202.59;5083043;28;20648;-75
2022/03/24 10:07:01;;;;;;;12.77;6.10;;;;;;;15.32;27.94;95202.81;5086067;28;20294;-75
2022/03/24 10:09:39;;;;;;;12.07;6.28;;;;;;;15.75;27.47;95199.47;5083047;28;20213;-74
2022/03/24 10:12:06;;;;;;;10.23;5.95;;;;;;;15.93;26.33;95186.31;5059702;28;20210;-74
2022/03/24 10:14:33;;;;;;;11.05;6.25;;;;;;;15.84;26.14;95191.13;5084919;28;20205;-75
2022/03/24 10:17:08;;;;;;;11.75;6.22;;;;;;;16.14;26.71;95192.34;5052927;28;20224;-74
2022/03/24 10:19:37;;;;;;;12.50;5.25;;;;;;;16.04;25.66;95186.59;5066874;28;20784;-75
2022/03/24 10:22:11;;;;;;;11.85;6.15;;;;;;;15.94;26.25;95179.69;5084924;28;20326;-76
2022/03/24 10:24:43;;;;;;;11.63;5.22;;;;;;;16.07;25.92;95167.56;5060863;28;20203;-75
2022/03/24 10:27:13;;;;;;;13.23;5.90;;;;;;;15.94;25.59;95177.78;5082889;28;20210;-75
2022/03/24 10:29:40;;;;;;;8.48;5.53;;;;;;;15.52;25.30;95163.66;5085863;28;20203;-72
2022/03/24 10:32:14;;;;;;;10.88;5.95;;;;;;;15.82;26.14;95166.09;5082201;28;20204;-75
2022/03/24 10:34:46;;;;;;;9.63;6.03;;;;;;;16.18;25.39;95152.25;5061151;28;20248;-75
2022/03/24 10:37:17;;;;;;;11.15;6.30;;;;;;;16.47;25.22;95150.25;5083759;28;20614;-72
2022/03/24 10:39:57;;;;;;;13.98;6.30;;;;;;;16.55;26.01;95154.75;5078485;28;20309;-75
2022/03/24 10:42:26;;;;;;;10.18;5.72;;;;;;;16.09;25.86;95151.63;5063743;28;20219;-72
2022/03/24 10:45:09;;;;;;;10.45;5.65;;;;;;;16.34;25.38;95138.59;5080530;28;20202;-73
2022/03/24 10:47:39;;;;;;;11.52;6.43;;;;;;;16.26;26.13;95132.16;5078400;28;20198;-74
2022/03/24 10:50:29;;;;;;;13.95;6.07;;;;;;;16.66;25.99;95128.50;5079642;28;20603;-72
2022/03/24 10:53:00;;;;;;;12.52;6.22;;;;;;;16.87;25.38;95112.59;5067660;28;20729;-73
2022/03/24 10:55:54;;;;;;;9.38;4.45;;;;;;;16.38;24.85;95127.78;5078185;28;20199;-71
2022/03/24 10:58:25;;;;;;;9.07;5.35;;;;;;;16.04;24.90;95130.00;5069221;28;20203;-71
2022/03/24 11:00:56;;;;;;;10.55;5.80;;;;;;;16.35;25.33;95126.53;5071882;28;20222;-74
2022/03/24 11:03:23;;;;;;;10.63;5.32;;;;;;;16.42;25.05;95125.91;5083753;28;20696;-74
2022/03/24 11:05:52;;;;;;;10.70;5.75;;;;;;;16.48;25.20;95127.25;5078884;28;20275;-73
2022/03/24 11:08:19;;;;;;;9.00;5.85;;;;;;;16.50;24.87;95114.00;5078320;28;20202;-72
2022/03/24 11:10:48;;;;;;;13.23;7.78;;;;;;;16.84;24.83;95113.28;5076035;28;20203;-73
2022/03/24 11:13:25;;;;;;;18.00;6.43;;;;;;;16.80;24.59;95112.44;5066239;28;20206;-73
2022/03/24 11:15:53;;;;;;;10.02;5.88;;;;;;;16.85;24.37;95106.69;5080687;28;20202;-74
2022/03/24 11:18:22;;;;;;;11.15;6.15;;;;;;;16.62;24.20;95111.19;5077750;28;20253;-75
2022/03/24 11:20:49;;;;;;;13.13;6.20;;;;;;;16.67;24.92;95102.75;5070287;28;20203;-73
2022/03/24 11:23:35;;;;;;;20.05;8.73;;;;;;;17.17;24.44;95098.41;5067886;28;20227;-73
2022/03/24 11:26:03;;;;;;;12.57;7.60;;;;;;;16.80;24.71;95096.03;5071345;28;20199;-74
2022/03/24 11:28:34;;;;;;;12.32;6.43;;;;;;;17.29;24.76;95084.59;5065187;28;20287;-74
2022/03/24 11:31:06;;;;;;;12.25;6.60;;;;;;;17.56;23.53;95083.59;5077499;28;20237;-74